createdAt,value
2022-10-11T00:00:01.205Z,2.33
2022-10-11T00:02:27.835Z,3.83
2022-10-11T00:04:54.709Z,2.38
2022-10-11T00:07:21.309Z,4.47
2022-10-11T00:09:47.864Z,2.50
2022-10-11T00:12:14.738Z,3.17
2022-10-11T00:14:41.494Z,3.90
2022-10-11T00:17:08.127Z,3.78
2022-10-11T00:19:34.934Z,3.30
2022-10-11T00:22:01.612Z,3.13
2022-10-11T00:24:28.242Z,2.95
2022-10-11T00:26:54.817Z,3.40
2022-10-11T00:29:21.402Z,2.83
2022-10-11T00:31:48.057Z,2.90
2022-10-11T00:34:14.687Z,2.67
2022-10-11T00:36:41.383Z,2.80
2022-10-11T00:39:07.980Z,3.38
2022-10-11T00:41:34.611Z,2.90
2022-10-11T00:44:13.259Z,2.67
2022-10-11T00:46:40.762Z,2.92
2022-10-11T00:49:30.456Z,4.00
2022-10-11T00:52:12.165Z,3.45
2022-10-11T00:54:39.668Z,2.90
2022-10-11T00:57:08.075Z,3.72
2022-10-11T00:59:39.967Z,4.07
2022-10-11T01:02:06.605Z,3.63
2022-10-11T01:04:33.741Z,3.10
2022-10-11T01:07:00.385Z,5.68
2022-10-11T01:09:27.033Z,3.25
2022-10-11T01:11:54.077Z,4.22
2022-10-11T01:14:34.438Z,5.90
2022-10-11T01:17:24.155Z,6.40
2022-10-11T01:20:15.233Z,5.70
2022-10-11T01:23:03.536Z,4.72
2022-10-11T01:25:57.289Z,2.83
2022-10-11T01:28:39.026Z,3.30
2022-10-11T01:31:43.798Z,6.13
2022-10-11T01:34:14.038Z,2.20
2022-10-11T01:36:45.252Z,2.53
2022-10-11T01:39:48.056Z,2.60
2022-10-11T01:42:14.777Z,3.63
2022-10-11T01:44:42.129Z,4.32
2022-10-11T01:47:08.761Z,3.63
2022-10-11T01:49:35.428Z,2.53
2022-10-11T01:52:04.762Z,2.28
2022-10-11T01:54:49.929Z,2.55
2022-10-11T01:57:55.146Z,2.08
2022-10-11T02:00:24.129Z,2.00
2022-10-11T02:03:05.880Z,2.38
2022-10-11T02:06:04.236Z,2.28
2022-10-11T02:08:38.932Z,5.15
2022-10-11T02:11:30.521Z,8.73
2022-10-11T02:14:16.738Z,5.15
2022-10-11T02:16:56.351Z,3.97
2022-10-11T02:19:26.430Z,6.18
2022-10-11T02:21:54.913Z,3.78
2022-10-11T02:24:25.137Z,4.93
2022-10-11T02:26:52.512Z,2.90
2022-10-11T02:29:19.093Z,3.10
2022-10-11T02:31:45.724Z,4.45
2022-10-11T02:34:19.056Z,2.85
2022-10-11T02:36:59.335Z,3.08
2022-10-11T02:39:38.239Z,2.50
2022-10-11T02:42:05.752Z,5.32
2022-10-11T02:44:38.302Z,1.90
2022-10-11T02:47:04.971Z,2.40
2022-10-11T02:49:31.711Z,2.10
2022-10-11T02:51:58.666Z,2.05
2022-10-11T02:54:25.638Z,2.40
2022-10-11T02:56:52.364Z,4.20
2022-10-11T02:59:18.963Z,2.83
2022-10-11T03:01:45.636Z,2.25
2022-10-11T03:04:12.548Z,2.22
2022-10-11T03:06:39.180Z,3.30
2022-10-11T03:09:05.797Z,2.28
2022-10-11T03:11:32.639Z,4.38
2022-10-11T03:13:59.279Z,4.97
2022-10-11T03:16:26.197Z,2.50
2022-10-11T03:18:52.833Z,5.65
2022-10-11T03:21:19.449Z,8.70
2022-10-11T03:23:46.067Z,2.65
2022-10-11T03:26:12.706Z,1.80
2022-10-11T03:28:39.400Z,3.88
2022-10-11T03:31:06.165Z,2.75
2022-10-11T03:33:32.753Z,2.70
2022-10-11T03:35:59.390Z,2.88
2022-10-11T03:38:25.996Z,4.57
2022-10-11T03:40:52.574Z,1.98
2022-10-11T03:43:19.215Z,1.73
2022-10-11T03:45:45.773Z,2.28
2022-10-11T03:48:12.406Z,5.10
2022-10-11T03:50:39.298Z,3.90
2022-10-11T03:53:06.179Z,2.88
2022-10-11T03:55:32.850Z,2.50
2022-10-11T03:57:59.499Z,2.40
2022-10-11T04:00:27.072Z,1.95
2022-10-11T04:02:53.637Z,1.90
2022-10-11T04:05:20.300Z,1.58
2022-10-11T04:07:46.905Z,2.30
2022-10-11T04:10:13.540Z,2.53
2022-10-11T04:12:40.149Z,1.83
2022-10-11T04:15:07.284Z,2.22
2022-10-11T04:17:33.958Z,2.13
2022-10-11T04:20:01.773Z,2.10
2022-10-11T04:22:28.367Z,1.60
2022-10-11T04:24:54.931Z,2.17
2022-10-11T04:27:21.605Z,2.30
2022-10-11T04:29:48.238Z,2.83
2022-10-11T04:32:14.842Z,3.42
2022-10-11T04:34:41.649Z,2.75
2022-10-11T04:37:08.235Z,2.60
2022-10-11T04:39:34.792Z,1.80
2022-10-11T04:42:01.612Z,1.58
2022-10-11T04:44:28.288Z,2.75
2022-10-11T04:46:54.887Z,2.00
2022-10-11T04:49:23.440Z,2.20
2022-10-11T04:51:50.018Z,2.63
2022-10-11T04:54:16.663Z,1.92
2022-10-11T04:56:43.348Z,2.58
2022-10-11T04:59:09.974Z,2.00
2022-10-11T05:01:36.843Z,2.30
2022-10-11T05:04:03.679Z,2.20
2022-10-11T05:06:30.340Z,2.15
2022-10-11T05:08:57.032Z,1.77
2022-10-11T05:11:23.676Z,2.05
2022-10-11T05:13:50.232Z,2.30
2022-10-11T05:16:17.515Z,4.65
2022-10-11T05:18:44.688Z,4.57
2022-10-11T05:21:19.097Z,1.85
2022-10-11T05:23:49.771Z,5.07
2022-10-11T05:26:16.929Z,1.80
2022-10-11T05:28:43.713Z,2.00
2022-10-11T05:31:10.639Z,1.80
2022-10-11T05:33:37.260Z,4.10
2022-10-11T05:36:04.675Z,2.90
2022-10-11T05:38:31.547Z,1.90
2022-10-11T05:41:04.387Z,3.22
2022-10-11T05:43:31.046Z,1.98
2022-10-11T05:45:57.748Z,1.70
2022-10-11T05:48:24.470Z,1.60
2022-10-11T05:50:51.086Z,2.30
2022-10-11T05:53:17.710Z,1.90
2022-10-11T05:55:44.336Z,1.83
2022-10-11T05:58:13.113Z,7.90
2022-10-11T06:00:39.763Z,3.15
2022-10-11T06:03:06.831Z,3.40
2022-10-11T06:05:34.357Z,3.05
2022-10-11T06:08:01.249Z,2.25
2022-10-11T06:10:28.144Z,2.10
2022-10-11T06:12:54.892Z,3.03
2022-10-11T06:15:21.518Z,2.17
2022-10-11T06:17:48.191Z,2.03
2022-10-11T06:20:14.846Z,1.77
2022-10-11T06:22:41.612Z,1.42
2022-10-11T06:25:08.459Z,3.20
2022-10-11T06:27:35.740Z,7.47
2022-10-11T06:30:02.420Z,4.50
2022-10-11T06:32:29.507Z,2.53
2022-10-11T06:34:56.144Z,1.60
2022-10-11T06:37:22.770Z,1.80
2022-10-11T06:39:49.932Z,1.88
2022-10-11T06:42:16.801Z,1.42
2022-10-11T06:44:43.482Z,2.40
2022-10-11T06:47:10.072Z,1.60
2022-10-11T06:49:36.961Z,3.13
2022-10-11T06:52:03.622Z,2.35
2022-10-11T06:54:30.220Z,2.53
2022-10-11T06:56:56.726Z,1.75
2022-10-11T06:59:23.386Z,1.92
2022-10-11T07:01:50.096Z,2.22
2022-10-11T07:04:16.714Z,2.67
2022-10-11T07:06:43.436Z,3.03
2022-10-11T07:09:10.089Z,3.60
2022-10-11T07:11:36.689Z,3.50
2022-10-11T07:14:04.739Z,3.10
2022-10-11T07:16:31.646Z,5.03
2022-10-11T07:19:00.788Z,4.30
2022-10-11T07:21:28.298Z,3.58
2022-10-11T07:23:54.900Z,4.18
2022-10-11T07:26:21.508Z,4.30
2022-10-11T07:28:48.959Z,8.25
2022-10-11T07:31:18.053Z,3.58
2022-10-11T07:33:44.645Z,5.15
2022-10-11T07:36:11.674Z,3.58
2022-10-11T07:38:42.570Z,4.10
2022-10-11T07:41:09.315Z,4.85
2022-10-11T07:43:36.609Z,3.75
2022-10-11T07:46:03.726Z,5.32
2022-10-11T07:48:33.834Z,6.43
2022-10-11T07:51:20.596Z,4.63
2022-10-11T07:53:48.651Z,4.65
2022-10-11T07:56:17.739Z,5.82
2022-10-11T07:58:44.585Z,4.72
2022-10-11T08:01:11.266Z,5.63
2022-10-11T08:03:38.211Z,6.07
2022-10-11T08:06:06.848Z,4.25
2022-10-11T08:08:33.795Z,6.25
2022-10-11T08:11:03.633Z,4.40
2022-10-11T08:13:30.291Z,3.65
2022-10-11T08:15:58.495Z,4.30
2022-10-11T08:18:25.209Z,7.95
2022-10-11T08:20:52.490Z,7.20
2022-10-11T08:23:19.177Z,5.70
2022-10-11T08:25:47.578Z,7.03
2022-10-11T08:28:14.446Z,12.10
2022-10-11T08:30:43.249Z,11.77
2022-10-11T08:33:09.945Z,7.03
2022-10-11T08:35:36.550Z,8.65
2022-10-11T08:38:03.193Z,7.88
2022-10-11T08:40:34.380Z,9.77
2022-10-11T08:43:06.721Z,10.45
2022-10-11T08:45:38.434Z,5.70
2022-10-11T08:48:16.021Z,8.23
2022-10-11T08:50:43.669Z,12.27
2022-10-11T08:53:42.754Z,6.72
2022-10-11T08:56:11.779Z,9.68
2022-10-11T08:58:45.847Z,9.15
2022-10-11T09:01:16.901Z,7.40
2022-10-11T09:03:44.765Z,8.20
2022-10-11T09:06:23.416Z,7.63
2022-10-11T09:08:56.511Z,12.50
2022-10-11T09:11:41.898Z,10.93
2022-10-11T09:14:16.396Z,14.90
2022-10-11T09:17:01.340Z,28.73
2022-10-11T09:19:53.237Z,11.43
2022-10-11T09:22:37.810Z,11.65
2022-10-11T09:25:25.444Z,17.73
2022-10-11T09:28:10.966Z,10.85
2022-10-11T09:30:46.169Z,15.15
2022-10-11T09:33:18.770Z,12.07
2022-10-11T09:35:50.994Z,12.68
2022-10-11T09:38:26.569Z,12.05
2022-10-11T09:41:08.355Z,12.15
2022-10-11T09:43:34.985Z,10.95
2022-10-11T09:46:01.621Z,11.32
2022-10-11T09:48:38.338Z,12.15
2022-10-11T09:51:06.550Z,8.32
2022-10-11T09:53:53.358Z,11.82
2022-10-11T09:56:20.030Z,12.25
2022-10-11T09:58:46.656Z,15.93
2022-10-11T10:01:22.918Z,19.95
2022-10-11T10:03:49.770Z,12.68
2022-10-11T10:06:24.179Z,10.38
2022-10-11T10:08:50.952Z,11.57
2022-10-11T10:11:17.985Z,13.30
2022-10-11T10:13:48.671Z,10.15
2022-10-11T10:16:41.462Z,10.82
2022-10-11T10:19:18.304Z,14.25
2022-10-11T10:21:46.897Z,16.80
2022-10-11T10:24:35.473Z,12.50
2022-10-11T10:27:07.996Z,21.95
2022-10-11T10:29:34.661Z,22.38
2022-10-11T10:32:14.185Z,15.98
2022-10-11T10:34:58.902Z,15.88
2022-10-11T10:37:30.288Z,15.52
2022-10-11T10:40:14.479Z,11.18
2022-10-11T10:42:41.130Z,11.65
2022-10-11T10:45:12.194Z,14.75
2022-10-11T10:47:42.586Z,15.48
2022-10-11T10:53:15.746Z,13.10
2022-10-11T10:55:46.033Z,20.40
2022-10-11T10:58:34.224Z,15.02
2022-10-11T11:01:21.369Z,9.25
2022-10-11T11:04:14.001Z,11.25
2022-10-11T11:07:04.523Z,11.63
2022-10-11T11:09:49.528Z,13.63
2022-10-11T11:12:41.100Z,13.83
2022-10-11T11:15:14.930Z,11.90
2022-10-11T11:17:44.437Z,8.02
2022-10-11T11:20:42.068Z,9.43
2022-10-11T11:23:22.462Z,8.70
2022-10-11T11:26:04.459Z,10.13
2022-10-11T11:28:53.523Z,10.10
2022-10-11T11:31:43.916Z,10.30
2022-10-11T11:34:20.164Z,14.38
2022-10-11T11:36:56.429Z,7.22
2022-10-11T11:39:47.186Z,10.65
2022-10-11T11:42:22.550Z,8.82
2022-10-11T11:47:37.730Z,7.45
2022-10-11T11:50:23.238Z,7.07
2022-10-11T11:52:55.438Z,6.32
2022-10-11T11:55:48.130Z,5.88
2022-10-11T11:58:27.146Z,5.15
2022-10-11T12:01:07.698Z,8.20
2022-10-11T12:03:41.651Z,6.25
2022-10-11T12:06:15.131Z,8.57
2022-10-11T12:09:01.412Z,7.65
2022-10-11T12:11:38.840Z,6.28
2022-10-11T12:14:21.655Z,7.43
2022-10-11T12:17:12.461Z,6.25
2022-10-11T12:19:41.205Z,3.63
2022-10-11T12:22:35.725Z,5.60
2022-10-11T12:25:08.458Z,5.43
2022-10-11T12:27:44.907Z,5.57
2022-10-11T12:30:43.115Z,4.72
2022-10-11T12:33:18.567Z,7.88
2022-10-11T12:38:24.967Z,5.82
2022-10-11T12:41:15.070Z,5.85
2022-10-11T12:43:48.137Z,7.82
2022-10-11T12:46:29.793Z,6.90
2022-10-11T12:48:58.064Z,6.88
2022-10-11T12:51:27.889Z,6.22
2022-10-11T12:54:29.105Z,5.57
2022-10-11T12:57:11.860Z,6.43
2022-10-11T12:59:44.690Z,6.32
2022-10-11T13:02:28.687Z,6.10
2022-10-11T13:05:33.053Z,5.43
2022-10-11T13:08:02.503Z,7.05
2022-10-11T13:10:34.626Z,6.05
2022-10-11T13:13:01.717Z,6.60
2022-10-11T13:15:28.512Z,7.38
2022-10-11T13:17:59.465Z,5.50
2022-10-11T13:20:28.774Z,5.07
2022-10-11T13:22:55.573Z,3.97
2022-10-11T13:25:26.829Z,6.18
2022-10-11T13:27:54.807Z,5.65
2022-10-11T13:30:25.529Z,5.93
2022-10-11T13:32:52.550Z,7.20
2022-10-11T13:35:36.092Z,7.75
2022-10-11T13:38:03.161Z,8.73
2022-10-11T13:40:30.904Z,7.90
2022-10-11T13:42:57.593Z,5.95
2022-10-11T13:45:25.361Z,7.57
2022-10-11T13:47:52.650Z,9.38
2022-10-11T13:50:20.958Z,11.57
2022-10-11T13:53:10.766Z,15.30
2022-10-11T13:55:53.235Z,8.27
2022-10-11T13:58:29.773Z,11.25
2022-10-11T14:00:57.720Z,8.20
2022-10-11T14:03:27.907Z,8.90
2022-10-11T14:05:56.222Z,7.88
2022-10-11T14:08:44.759Z,9.40
2022-10-11T14:11:11.956Z,9.18
2022-10-11T14:13:42.928Z,9.90
2022-10-11T14:16:18.696Z,6.90
2022-10-11T14:19:00.934Z,8.60
2022-10-11T14:21:45.876Z,8.80
2022-10-11T14:24:13.134Z,10.75
2022-10-11T14:26:41.388Z,6.70
2022-10-11T14:29:12.930Z,10.18
2022-10-11T14:31:42.136Z,7.57
2022-10-11T14:34:18.045Z,6.78
2022-10-11T14:36:44.825Z,9.75
2022-10-11T14:39:19.125Z,5.53
2022-10-11T14:41:45.931Z,5.80
2022-10-11T14:44:12.861Z,6.90
2022-10-11T14:46:39.599Z,6.55
2022-10-11T14:49:27.109Z,8.93
2022-10-11T14:51:54.548Z,8.98
2022-10-11T14:54:21.898Z,4.53
2022-10-11T14:56:49.368Z,8.23
2022-10-11T14:59:18.273Z,9.27
2022-10-11T15:01:44.971Z,8.70
2022-10-11T15:04:11.711Z,5.97
2022-10-11T15:06:39.722Z,11.27
2022-10-11T15:09:06.658Z,8.93
2022-10-11T15:11:35.573Z,6.95
2022-10-11T15:14:02.068Z,6.03
2022-10-11T15:16:29.356Z,9.25
2022-10-11T15:18:56.161Z,4.30
2022-10-11T15:21:24.821Z,8.30
2022-10-11T15:23:51.942Z,7.30
2022-10-11T15:26:20.637Z,7.90
2022-10-11T15:28:47.483Z,6.90
2022-10-11T15:31:14.185Z,4.85
2022-10-11T15:33:40.889Z,8.00
2022-10-11T15:36:09.325Z,4.53
2022-10-11T15:38:36.284Z,9.13
2022-10-11T15:41:03.225Z,9.20
2022-10-11T15:43:29.870Z,6.80
2022-10-11T15:45:56.783Z,9.95
2022-10-11T15:48:24.873Z,5.10
2022-10-11T15:50:51.652Z,3.88
2022-10-11T15:53:22.068Z,6.65
2022-10-11T15:55:50.177Z,13.40
2022-10-11T15:58:21.164Z,8.00
2022-10-11T16:00:49.080Z,4.78
2022-10-11T16:03:16.125Z,6.07
2022-10-11T16:05:42.846Z,6.03
2022-10-11T16:08:09.787Z,3.67
2022-10-11T16:10:36.498Z,3.97
2022-10-11T16:13:03.282Z,2.75
2022-10-11T16:15:29.927Z,5.88
2022-10-11T16:17:56.528Z,4.03
2022-10-11T16:20:23.844Z,4.25
2022-10-11T16:22:50.749Z,6.82
2022-10-11T16:25:17.326Z,4.85
2022-10-11T16:27:44.034Z,4.28
2022-10-11T16:30:12.024Z,3.47
2022-10-11T16:32:39.093Z,6.72
2022-10-11T16:35:06.244Z,8.38
2022-10-11T16:37:32.806Z,6.43
2022-10-11T16:39:59.451Z,4.57
2022-10-11T16:42:26.093Z,6.20
2022-10-11T16:44:52.806Z,3.35
2022-10-11T16:47:19.443Z,4.03
2022-10-11T16:49:46.222Z,5.75
2022-10-11T16:52:12.991Z,3.70
2022-10-11T16:54:42.269Z,3.60
2022-10-11T16:57:08.968Z,4.53
2022-10-11T16:59:35.632Z,7.60
2022-10-11T17:02:02.174Z,2.92
2022-10-11T17:04:29.009Z,3.95
2022-10-11T17:06:55.620Z,4.28
2022-10-11T17:09:22.227Z,6.20
2022-10-11T17:11:50.600Z,4.13
2022-10-11T17:14:17.329Z,3.30
2022-10-11T17:16:44.293Z,8.20
2022-10-11T17:19:12.328Z,7.45
2022-10-11T17:21:39.287Z,7.75
2022-10-11T17:24:06.344Z,6.18
2022-10-11T17:26:33.064Z,5.55
2022-10-11T17:28:59.780Z,4.50
2022-10-11T17:31:27.061Z,3.22
2022-10-11T17:33:54.029Z,5.13
2022-10-11T17:36:21.592Z,6.45
2022-10-11T17:38:48.670Z,9.77
2022-10-11T17:41:15.463Z,5.43
2022-10-11T17:43:42.079Z,4.20
2022-10-11T17:46:09.703Z,6.15
2022-10-11T17:48:36.499Z,6.60
2022-10-11T17:51:10.680Z,7.45
2022-10-11T17:53:37.551Z,3.88
2022-10-11T17:56:09.997Z,3.58
2022-10-11T17:58:36.671Z,3.28
2022-10-11T18:01:05.222Z,3.08
2022-10-11T18:03:32.337Z,9.80
2022-10-11T18:05:58.884Z,6.95
2022-10-11T18:08:25.531Z,3.20
2022-10-11T18:10:52.187Z,4.05
2022-10-11T18:13:19.543Z,3.10
2022-10-11T18:15:49.125Z,4.07
2022-10-11T18:18:19.445Z,3.65
2022-10-11T18:20:49.160Z,9.75
2022-10-11T18:23:16.892Z,6.25
2022-10-11T18:25:47.882Z,3.25
2022-10-11T18:28:14.652Z,4.10
2022-10-11T18:30:42.781Z,4.30
2022-10-11T18:33:11.878Z,5.60
2022-10-11T18:35:38.442Z,2.75
2022-10-11T18:38:05.248Z,6.15
2022-10-11T18:40:32.021Z,6.88
2022-10-11T18:42:59.706Z,4.20
2022-10-11T18:45:26.478Z,3.30
2022-10-11T18:47:53.111Z,4.53
2022-10-11T18:50:19.662Z,6.10
2022-10-11T18:52:46.338Z,5.00
2022-10-11T18:55:12.970Z,4.82
2022-10-11T18:57:39.612Z,9.18
2022-10-11T19:00:16.864Z,3.05
2022-10-11T19:02:53.266Z,3.03
2022-10-11T19:05:19.796Z,3.90
2022-10-11T19:07:46.430Z,2.80
2022-10-11T19:10:13.032Z,3.60
2022-10-11T19:12:39.620Z,3.80
2022-10-11T19:15:06.443Z,3.22
2022-10-11T19:17:33.086Z,4.07
2022-10-11T19:19:59.721Z,4.35
2022-10-11T19:22:26.319Z,4.45
2022-10-11T19:24:52.870Z,3.22
2022-10-11T19:27:19.529Z,3.30
2022-10-11T19:29:47.379Z,8.35
2022-10-11T19:32:14.045Z,5.03
2022-10-11T19:34:40.709Z,9.52
2022-10-11T19:37:07.395Z,4.50
2022-10-11T19:39:34.058Z,3.97
2022-10-11T19:42:01.379Z,4.32
2022-10-11T19:44:27.984Z,3.83
2022-10-11T19:46:54.697Z,4.45
2022-10-11T19:49:22.089Z,2.75
2022-10-11T19:51:48.617Z,3.33
2022-10-11T19:54:15.353Z,8.32
2022-10-11T19:56:42.074Z,5.90
2022-10-11T19:59:08.708Z,13.43
2022-10-11T20:01:35.681Z,4.38
2022-10-11T20:04:06.532Z,5.40
2022-10-11T20:06:38.098Z,6.28
2022-10-11T20:09:28.128Z,4.22
2022-10-11T20:11:53.042Z,3.80
2022-10-11T20:14:19.737Z,4.03
2022-10-11T20:16:46.324Z,3.42
2022-10-11T20:19:12.968Z,3.78
2022-10-11T20:21:39.556Z,3.83
2022-10-11T20:24:06.286Z,4.30
2022-10-11T20:26:34.466Z,3.88
2022-10-11T20:29:01.144Z,3.92
2022-10-11T20:31:28.469Z,3.92
2022-10-11T20:33:56.069Z,5.38
2022-10-11T20:36:23.314Z,5.20
2022-10-11T20:38:50.225Z,6.10
2022-10-11T20:41:20.808Z,3.63
2022-10-11T20:43:48.962Z,3.58
2022-10-11T20:46:23.123Z,7.70
2022-10-11T20:48:58.899Z,4.35
2022-10-11T20:51:29.278Z,7.07
2022-10-11T20:53:55.896Z,3.92
2022-10-11T20:56:22.604Z,4.35
2022-10-11T20:58:52.828Z,5.72
2022-10-11T21:01:23.494Z,4.47
2022-10-11T21:03:50.181Z,5.65
2022-10-11T21:06:16.763Z,5.70
2022-10-11T21:08:43.380Z,11.80
2022-10-11T21:11:10.182Z,6.13
2022-10-11T21:13:36.868Z,9.27
2022-10-11T21:16:13.485Z,4.25
2022-10-11T21:18:40.166Z,4.55
2022-10-11T21:21:07.278Z,7.63
2022-10-11T21:23:34.064Z,6.90
2022-10-11T21:26:02.381Z,8.63
2022-10-11T21:28:29.042Z,4.32
2022-10-11T21:30:55.641Z,3.85
2022-10-11T21:33:22.240Z,4.15
2022-10-11T21:35:48.962Z,4.35
2022-10-11T21:38:15.538Z,3.67
2022-10-11T21:40:42.144Z,4.53
2022-10-11T21:43:08.688Z,4.53
2022-10-11T21:45:39.170Z,6.82
2022-10-11T21:48:06.204Z,7.43
2022-10-11T21:50:32.823Z,6.15
2022-10-11T21:52:59.492Z,4.53
2022-10-11T21:55:26.693Z,12.55
2022-10-11T21:57:53.355Z,10.07
2022-10-11T22:00:20.201Z,8.60
2022-10-11T22:02:46.831Z,4.45
2022-10-11T22:05:13.429Z,4.80
2022-10-11T22:07:40.044Z,4.70
2022-10-11T22:10:06.675Z,7.82
2022-10-11T22:12:33.501Z,7.72
2022-10-11T22:15:00.426Z,4.53
2022-10-11T22:17:27.004Z,6.43
2022-10-11T22:19:53.666Z,3.97
2022-10-11T22:22:20.214Z,3.80
2022-10-11T22:24:47.079Z,5.68
2022-10-11T22:27:13.746Z,5.45
2022-10-11T22:29:40.442Z,4.18
2022-10-11T22:32:07.079Z,7.88
2022-10-11T22:34:33.756Z,10.05
2022-10-11T22:37:00.438Z,8.25
2022-10-11T22:39:26.972Z,4.20
2022-10-11T22:41:54.068Z,4.35
2022-10-11T22:44:20.914Z,4.22
2022-10-11T22:46:47.456Z,5.13
2022-10-11T22:49:14.046Z,4.47
2022-10-11T22:51:40.571Z,4.85
2022-10-11T22:54:07.134Z,3.90
2022-10-11T22:56:34.027Z,4.20
2022-10-11T22:59:00.635Z,6.35
2022-10-11T23:01:27.341Z,8.75
2022-10-11T23:03:54.035Z,5.25
2022-10-11T23:06:20.678Z,6.72
2022-10-11T23:08:47.336Z,6.97
2022-10-11T23:11:13.921Z,5.97
2022-10-11T23:13:40.534Z,4.03
2022-10-11T23:16:08.454Z,3.72
2022-10-11T23:18:35.101Z,5.95
2022-10-11T23:21:01.792Z,5.95
2022-10-11T23:23:28.557Z,5.03
2022-10-11T23:26:02.174Z,5.40
2022-10-11T23:28:29.093Z,6.63
2022-10-11T23:30:55.696Z,4.95
2022-10-11T23:33:22.316Z,7.35
2022-10-11T23:35:48.943Z,5.80
2022-10-11T23:38:15.632Z,5.40
2022-10-11T23:40:42.443Z,7.13
2022-10-11T23:43:09.122Z,7.32
2022-10-11T23:45:35.815Z,5.03
2022-10-11T23:48:02.473Z,7.28
2022-10-11T23:50:29.087Z,4.72
2022-10-11T23:52:55.755Z,4.97
2022-10-11T23:55:23.936Z,7.35
2022-10-11T23:57:50.565Z,6.75
